Time;durP1;ratioP1;P1;durP2;ratioP2;P2;SDS_P1;SDS_P2;PMS_P1;PMS_P2;Temp;Humidity;BMP_temperature;BMP_pressure;BME280_temperature;BME280_humidity;BME280_pressure;Samples;Min_cycle;Max_cycle;Signal;HPM_P1;HPM_P2
2022/12/23 00:00:36;;;;;;;0.10;0.10;;;8.20;99.90;;;;;;5025831;28;20143;-70
2022/12/23 00:03:02;;;;;;;0.75;0.75;;;8.20;99.90;;;;;;5029105;28;20145;-70
2022/12/23 00:05:28;;;;;;;2.00;1.85;;;8.20;99.90;;;;;;5025078;28;20037;-70
2022/12/23 00:07:54;;;;;;;7.47;3.13;;;8.20;99.90;;;;;;5028389;28;20644;-69
2022/12/23 00:10:19;;;;;;;0.47;0.47;;;8.20;99.90;;;;;;5027267;28;20073;-69
2022/12/23 00:15:29;;;;;;;3.22;0.90;;;8.10;99.90;;;;;;5017454;28;20054;-69
2022/12/23 00:17:54;;;;;;;1.75;1.65;;;8.10;99.90;;;;;;5025760;28;20045;-70
2022/12/23 00:20:20;;;;;;;2.45;2.28;;;8.10;99.90;;;;;;5023971;28;20048;-69
2022/12/23 00:23:04;;;;;;;1.98;1.38;;;8.10;99.90;;;;;;5026618;28;20033;-70
2022/12/23 00:25:39;;;;;;;0.65;0.65;;;8.10;99.90;;;;;;5027719;28;20045;-70
2022/12/23 00:28:13;;;;;;;4.28;1.48;;;8.10;99.90;;;;;;5024927;28;20854;-70
2022/12/23 00:30:54;;;;;;;0.90;0.50;;;8.10;99.90;;;;;;5027018;28;20045;-69
2022/12/23 00:33:22;;;;;;;1.17;1.10;;;8.10;99.90;;;;;;5026866;28;20489;-69
2022/12/23 00:35:49;;;;;;;1.13;1.13;;;8.10;99.90;;;;;;5026506;28;20041;-70
2022/12/23 00:38:15;;;;;;;4.70;1.35;;;8.10;99.90;;;;;;5026553;28;20042;-67
2022/12/23 00:43:25;;;;;;;7.72;3.55;;;8.10;99.90;;;;;;5026021;28;20041;-68
2022/12/23 00:45:50;;;;;;;0.90;0.90;;;8.10;99.90;;;;;;5026394;28;20370;-67
2022/12/23 00:51:00;;;;;;;1.60;1.40;;;8.10;99.90;;;;;;5027495;28;20088;-67
2022/12/23 00:53:26;;;;;;;0.95;0.90;;;8.10;99.90;;;;;;5027083;28;20081;-67
2022/12/23 00:55:51;;;;;;;0.63;0.63;;;8.10;99.90;;;;;;5025209;28;20446;-67
2022/12/23 00:58:18;;;;;;;0.28;0.28;;;8.10;99.90;;;;;;5026626;28;20060;-67
2022/12/23 01:06:13;;;;;;;3.20;1.50;;;8.10;99.90;;;;;;5031388;28;20428;-67
2022/12/23 01:08:39;;;;;;;3.95;2.63;;;8.10;99.90;;;;;;5024885;28;20037;-66
2022/12/23 01:11:07;;;;;;;1.63;1.52;;;8.10;99.90;;;;;;5023041;28;20104;-67
2022/12/23 01:13:35;;;;;;;0.73;0.73;;;8.10;99.90;;;;;;5026087;28;20120;-67
2022/12/23 01:16:06;;;;;;;1.80;1.70;;;8.10;99.90;;;;;;5025292;28;20049;-67
2022/12/23 01:18:33;;;;;;;1.08;1.08;;;8.10;99.90;;;;;;5026504;28;20055;-67
2022/12/23 01:21:07;;;;;;;3.22;3.00;;;8.00;99.90;;;;;;5028130;28;20047;-67
2022/12/23 01:23:33;;;;;;;3.63;1.92;;;8.00;99.90;;;;;;5024425;28;20037;-67
2022/12/23 01:26:01;;;;;;;2.15;1.27;;;8.00;99.90;;;;;;5027888;28;20134;-67
2022/12/23 01:28:28;;;;;;;2.33;2.03;;;7.90;99.90;;;;;;5026602;28;20061;-67
2022/12/23 01:30:54;;;;;;;0.20;0.20;;;7.90;99.90;;;;;;5026667;28;20045;-67
2022/12/23 01:33:20;;;;;;;0.73;0.73;;;7.90;99.90;;;;;;5022475;28;20107;-67
2022/12/23 01:35:46;;;;;;;5.65;2.28;;;7.90;99.90;;;;;;5026484;28;20041;-66
2022/12/23 01:38:12;;;;;;;3.85;2.72;;;7.90;99.90;;;;;;5026444;28;20261;-67
2022/12/23 01:40:41;;;;;;;0.80;0.80;;;7.90;99.90;;;;;;5023569;28;20103;-67
2022/12/23 01:43:12;;;;;;;0.13;0.13;;;7.90;99.90;;;;;;5023206;28;20046;-67
2022/12/23 01:45:37;;;;;;;0.30;0.30;;;7.90;99.90;;;;;;5024272;28;20045;-67
2022/12/23 01:48:11;;;;;;;0.70;0.70;;;7.90;99.90;;;;;;5028925;28;20103;-67
2022/12/23 01:50:57;;;;;;;2.05;1.95;;;7.90;99.90;;;;;;5025899;28;20092;-67
2022/12/23 01:53:25;;;;;;;1.50;1.40;;;7.90;99.90;;;;;;5029149;28;20455;-67
2022/12/23 01:55:58;;;;;;;0.82;0.82;;;7.90;99.90;;;;;;5031179;28;20681;-67
2022/12/23 01:58:32;;;;;;;2.17;2.03;;;7.90;99.90;;;;;;5028967;28;20117;-67
2022/12/23 02:03:44;;;;;;;1.98;1.20;;;7.80;99.90;;;;;;5029331;28;20049;-67
2022/12/23 02:09:17;;;;;;;0.45;0.45;;;7.80;99.90;;;;;;5029322;28;20052;-67
2022/12/23 02:12:02;;;;;;;0.55;0.55;;;7.90;99.90;;;;;;5028176;28;20041;-68
2022/12/23 02:17:34;;;;;;;0.45;0.45;;;7.80;99.90;;;;;;5029358;28;20576;-67
2022/12/23 02:20:19;;;;;;;1.85;1.70;;;7.80;99.90;;;;;;5026839;28;20497;-67
2022/12/23 02:23:04;;;;;;;0.32;0.32;;;7.80;99.90;;;;;;5026318;28;20044;-67
2022/12/23 02:25:52;;;;;;;0.10;0.10;;;7.80;99.90;;;;;;5028317;28;20067;-67
2022/12/23 02:28:33;;;;;;;1.27;0.93;;;7.80;99.90;;;;;;5029386;28;20813;-67
2022/12/23 02:31:15;;;;;;;4.18;1.30;;;7.80;99.90;;;;;;5025758;28;20057;-67
2022/12/23 02:34:14;;;;;;;1.58;1.48;;;7.80;99.90;;;;;;5028605;28;20045;-67
2022/12/23 02:36:53;;;;;;;0.40;0.40;;;7.80;99.90;;;;;;5033012;28;20049;-67
2022/12/23 02:39:26;;;;;;;0.88;0.88;;;7.90;99.90;;;;;;5028236;28;20084;-67
2022/12/23 02:42:09;;;;;;;0.63;0.63;;;7.90;99.90;;;;;;5028651;28;20040;-67
2022/12/23 02:44:55;;;;;;;0.90;0.90;;;7.80;99.90;;;;;;5018865;28;20152;-67
2022/12/23 02:47:30;;;;;;;1.25;1.23;;;7.80;99.90;;;;;;5027452;28;20541;-66
2022/12/23 02:50:01;;;;;;;0.38;0.38;;;7.80;99.90;;;;;;5027407;28;20385;-67
2022/12/23 02:52:32;;;;;;;1.38;1.27;;;7.80;99.90;;;;;;5026788;28;20382;-67
2022/12/23 02:55:12;;;;;;;1.75;1.60;;;7.80;99.90;;;;;;5027233;28;20485;-67
2022/12/23 02:57:42;;;;;;;1.08;1.08;;;7.80;99.90;;;;;;5027386;28;20041;-67
2022/12/23 03:00:09;;;;;;;1.52;1.45;;;7.80;99.90;;;;;;5026473;28;20049;-67
2022/12/23 03:02:37;;;;;;;1.52;1.45;;;7.80;99.90;;;;;;5027113;28;20084;-67
2022/12/23 03:05:04;;;;;;;1.80;1.73;;;7.80;99.90;;;;;;5026302;28;20051;-67
2022/12/23 03:07:32;;;;;;;0.32;0.32;;;7.80;99.90;;;;;;5017048;28;20379;-67
2022/12/23 03:10:27;;;;;;;1.75;1.65;;;7.80;99.90;;;;;;5028249;28;20045;-67
2022/12/23 03:13:11;;;;;;;0.45;0.45;;;7.70;99.90;;;;;;5021109;28;20041;-67
2022/12/23 03:16:06;;;;;;;0.45;0.45;;;7.70;99.90;;;;;;5026568;28;20088;-67
2022/12/23 03:18:47;;;;;;;1.98;1.88;;;7.70;99.90;;;;;;5025494;28;20041;-67
2022/12/23 03:21:38;;;;;;;0.45;0.45;;;7.70;99.90;;;;;;5027882;28;20052;-67
2022/12/23 03:24:28;;;;;;;0.10;0.10;;;7.70;99.90;;;;;;5021381;28;20440;-67
2022/12/23 03:27:01;;;;;;;0.90;0.63;;;7.80;99.90;;;;;;5025333;28;20587;-67
2022/12/23 03:29:55;;;;;;;1.03;1.03;;;7.80;99.90;;;;;;5027621;28;20128;-67
2022/12/23 03:32:23;;;;;;;0.20;0.20;;;7.70;99.90;;;;;;5024677;28;20048;-67
2022/12/23 03:34:53;;;;;;;0.20;0.20;;;7.70;99.90;;;;;;5027941;28;20120;-67
2022/12/23 03:37:21;;;;;;;0.30;0.30;;;7.70;99.90;;;;;;5022156;28;20054;-67
2022/12/23 03:39:57;;;;;;;1.88;1.77;;;7.70;99.90;;;;;;5026998;28;20085;-67
2022/12/23 03:42:28;;;;;;;0.43;0.38;;;7.70;99.90;;;;;;5025875;28;20037;-67
2022/12/23 03:44:57;;;;;;;0.40;0.40;;;7.70;99.90;;;;;;5025137;28;20063;-67
2022/12/23 03:47:33;;;;;;;0.57;0.57;;;7.70;99.90;;;;;;5028323;28;20512;-67
2022/12/23 03:50:06;;;;;;;1.00;0.98;;;7.70;99.90;;;;;;5026487;28;20049;-67
2022/12/23 03:52:54;;;;;;;2.15;1.38;;;7.60;99.90;;;;;;5020443;28;20156;-67
2022/12/23 03:55:25;;;;;;;0.45;0.45;;;7.60;99.90;;;;;;5026960;28;20065;-67
2022/12/23 03:58:11;;;;;;;0.40;0.40;;;7.60;99.90;;;;;;5025775;28;20052;-67
2022/12/23 04:00:44;;;;;;;0.40;0.40;;;7.60;99.90;;;;;;5020497;28;20053;-67
2022/12/23 04:03:30;;;;;;;0.50;0.50;;;7.60;99.90;;;;;;5019266;28;20106;-67
2022/12/23 04:05:58;;;;;;;0.20;0.20;;;7.70;99.90;;;;;;5025417;28;20057;-67
2022/12/23 04:08:36;;;;;;;1.10;0.90;;;7.70;99.90;;;;;;5026322;28;20094;-67
2022/12/23 04:11:02;;;;;;;0.52;0.52;;;7.60;99.90;;;;;;5026500;28;20049;-67
2022/12/23 04:13:29;;;;;;;0.68;0.68;;;7.60;99.90;;;;;;5027009;28;20073;-67
2022/12/23 04:15:57;;;;;;;0.32;0.32;;;7.60;99.90;;;;;;5022646;28;20038;-67
2022/12/23 04:18:22;;;;;;;2.08;1.30;;;7.60;99.90;;;;;;5027275;28;20382;-66
2022/12/23 04:20:48;;;;;;;0.10;0.10;;;7.60;99.90;;;;;;5021275;28;20045;-67
2022/12/23 04:23:13;;;;;;;0.15;0.15;;;7.60;99.90;;;;;;5028256;28;20037;-68
2022/12/23 04:25:39;;;;;;;0.32;0.32;;;7.60;99.90;;;;;;5024940;28;20533;-68
2022/12/23 04:28:04;;;;;;;1.77;1.23;;;7.60;99.90;;;;;;5028372;28;20045;-68
2022/12/23 04:30:30;;;;;;;0.20;0.20;;;7.60;99.90;;;;;;5023114;28;20068;-68
2022/12/23 04:32:56;;;;;;;0.20;0.20;;;7.60;99.90;;;;;;5025848;28;20045;-68
2022/12/23 04:35:21;;;;;;;1.10;1.08;;;7.50;99.90;;;;;;5024981;28;20041;-68
2022/12/23 04:37:47;;;;;;;0.10;0.10;;;7.50;99.90;;;;;;5026456;28;20402;-68
2022/12/23 04:40:13;;;;;;;1.35;1.00;;;7.50;99.90;;;;;;5026277;28;20570;-68
2022/12/23 04:42:38;;;;;;;0.20;0.20;;;7.50;99.90;;;;;;5027468;28;20049;-68
2022/12/23 04:45:04;;;;;;;0.10;0.10;;;7.50;99.90;;;;;;5024113;28;20057;-68
2022/12/23 04:47:30;;;;;;;0.50;0.50;;;7.50;99.90;;;;;;5024302;28;20136;-67
2022/12/23 04:49:55;;;;;;;2.05;1.95;;;7.50;99.90;;;;;;5025552;28;20049;-68
2022/12/23 04:52:21;;;;;;;0.43;0.43;;;7.50;99.90;;;;;;5025173;28;20037;-67
2022/12/23 04:54:47;;;;;;;0.20;0.20;;;7.50;99.90;;;;;;5024332;28;20052;-67
2022/12/23 04:57:12;;;;;;;0.63;0.63;;;7.50;99.90;;;;;;5021746;28;20065;-67
2022/12/23 04:59:38;;;;;;;0.73;0.73;;;7.60;99.90;;;;;;5018406;28;20060;-67
2022/12/23 05:02:04;;;;;;;0.35;0.35;;;7.60;99.90;;;;;;5026681;28;20085;-68
2022/12/23 05:04:29;;;;;;;2.88;1.25;;;7.60;99.90;;;;;;5026928;28;20056;-68
2022/12/23 05:06:55;;;;;;;0.38;0.38;;;7.50;99.90;;;;;;5026362;28;20405;-68
2022/12/23 05:09:20;;;;;;;0.73;0.73;;;7.50;99.90;;;;;;5023153;28;20060;-68
2022/12/23 05:11:46;;;;;;;1.17;1.08;;;7.50;99.90;;;;;;5024957;28;20052;-68
2022/12/23 05:14:12;;;;;;;0.82;0.82;;;7.50;99.90;;;;;;5027060;28;20041;-68
2022/12/23 05:16:38;;;;;;;0.17;0.17;;;7.60;99.90;;;;;;5031465;28;20065;-68
2022/12/23 05:19:03;;;;;;;2.72;1.48;;;7.60;99.90;;;;;;5030340;28;20131;-68
2022/12/23 05:21:29;;;;;;;1.55;1.23;;;7.60;99.90;;;;;;5028776;28;20142;-68
2022/12/23 05:23:55;;;;;;;3.30;1.70;;;7.60;99.90;;;;;;5029966;28;20040;-68
2022/12/23 05:26:20;;;;;;;0.30;0.30;;;7.60;99.90;;;;;;5031203;28;20555;-68
2022/12/23 05:28:46;;;;;;;0.63;0.63;;;7.60;99.90;;;;;;5030992;28;20049;-68
2022/12/23 05:31:13;;;;;;;0.35;0.35;;;7.60;99.90;;;;;;5029340;28;20045;-67
2022/12/23 05:33:39;;;;;;;1.02;1.02;;;7.60;99.90;;;;;;5027576;28;20045;-67
2022/12/23 05:36:05;;;;;;;0.20;0.20;;;7.60;99.90;;;;;;5029369;28;20033;-68
2022/12/23 05:38:31;;;;;;;0.52;0.52;;;7.60;99.90;;;;;;5028404;28;20060;-67
2022/12/23 05:40:56;;;;;;;0.10;0.10;;;7.60;99.90;;;;;;5022572;28;20394;-68
2022/12/23 05:43:22;;;;;;;0.25;0.25;;;7.60;99.90;;;;;;5029136;28;20045;-67
2022/12/23 05:45:49;;;;;;;0.10;0.10;;;7.50;99.90;;;;;;5030455;28;20088;-67
2022/12/23 05:48:15;;;;;;;3.33;1.63;;;7.60;99.90;;;;;;5028347;28;20043;-67
2022/12/23 05:50:40;;;;;;;0.10;0.10;;;7.60;99.90;;;;;;5029467;28;20063;-67
2022/12/23 05:53:08;;;;;;;0.10;0.10;;;7.60;99.90;;;;;;5030471;28;20132;-67
2022/12/23 05:55:34;;;;;;;0.30;0.30;;;7.60;99.90;;;;;;5027246;28;20552;-67
2022/12/23 05:58:00;;;;;;;0.90;0.30;;;7.50;99.90;;;;;;5029830;28;20053;-67
2022/12/23 06:00:25;;;;;;;0.28;0.28;;;7.50;99.90;;;;;;5028166;28;20140;-67
2022/12/23 06:02:51;;;;;;;0.47;0.47;;;7.50;99.90;;;;;;5027905;28;20053;-67
2022/12/23 06:05:17;;;;;;;0.45;0.45;;;7.40;99.90;;;;;;5028554;28;20044;-67
2022/12/23 06:07:42;;;;;;;0.65;0.65;;;7.40;99.90;;;;;;5025547;28;20103;-68
2022/12/23 06:10:09;;;;;;;0.30;0.30;;;7.40;99.90;;;;;;5027058;28;20041;-68
2022/12/23 06:12:35;;;;;;;1.02;0.77;;;7.40;99.90;;;;;;5035413;28;20033;-68
2022/12/23 06:15:00;;;;;;;0.35;0.35;;;7.30;99.90;;;;;;5028305;28;20072;-68
2022/12/23 06:17:26;;;;;;;0.20;0.20;;;7.30;99.90;;;;;;5027897;28;20045;-68
2022/12/23 06:19:52;;;;;;;0.40;0.40;;;7.30;99.90;;;;;;5028113;28;20053;-68
2022/12/23 06:22:19;;;;;;;0.00;0.00;;;7.30;99.90;;;;;;5018716;28;20120;-67
2022/12/23 06:24:45;;;;;;;0.15;0.15;;;7.30;99.90;;;;;;5028109;28;20124;-68
2022/12/23 06:27:11;;;;;;;0.55;0.52;;;7.30;99.90;;;;;;5026391;28;20690;-68
2022/12/23 06:29:37;;;;;;;0.57;0.57;;;7.30;99.90;;;;;;5029875;28;20053;-67
2022/12/23 06:32:02;;;;;;;4.63;0.95;;;7.30;99.90;;;;;;5027865;28;20049;-67
2022/12/23 06:34:28;;;;;;;0.30;0.30;;;7.40;99.90;;;;;;5028029;28;20049;-68
2022/12/23 06:36:54;;;;;;;0.20;0.20;;;7.30;99.90;;;;;;5029786;28;20041;-67
2022/12/23 06:39:19;;;;;;;11.40;1.95;;;7.30;99.90;;;;;;5028851;28;20029;-67
2022/12/23 06:41:45;;;;;;;0.20;0.20;;;7.30;99.90;;;;;;5027328;28;20052;-67
2022/12/23 06:44:10;;;;;;;2.38;1.98;;;7.30;99.90;;;;;;5029102;28;20029;-67
2022/12/23 06:46:36;;;;;;;0.10;0.10;;;7.30;99.90;;;;;;5029080;28;20493;-68
2022/12/23 06:49:02;;;;;;;0.57;0.57;;;7.30;99.90;;;;;;5028836;28;20088;-67
2022/12/23 06:51:28;;;;;;;0.82;0.82;;;7.40;99.90;;;;;;5024846;28;20050;-67
2022/12/23 06:53:53;;;;;;;0.30;0.30;;;7.40;99.90;;;;;;5022995;28;20497;-67
2022/12/23 06:56:19;;;;;;;1.25;0.85;;;7.30;99.90;;;;;;5020884;28;20053;-67
2022/12/23 06:58:44;;;;;;;1.95;1.85;;;7.30;99.90;;;;;;5027632;28;20045;-67
2022/12/23 07:01:10;;;;;;;1.45;1.00;;;7.30;99.90;;;;;;5027687;28;20125;-67
2022/12/23 07:03:36;;;;;;;1.85;1.13;;;7.30;99.90;;;;;;5029021;28;20060;-67
2022/12/23 07:06:02;;;;;;;0.60;0.60;;;7.30;99.90;;;;;;5029013;28;20045;-67
2022/12/23 07:08:27;;;;;;;0.13;0.13;;;7.30;99.90;;;;;;5029377;28;20038;-67
2022/12/23 07:10:58;;;;;;;0.63;0.63;;;7.40;99.90;;;;;;5025074;28;20041;-67
2022/12/23 07:13:24;;;;;;;0.45;0.45;;;7.40;99.90;;;;;;5026877;28;20104;-68
2022/12/23 07:15:49;;;;;;;0.15;0.15;;;7.40;99.90;;;;;;5024871;28;20481;-67
2022/12/23 07:18:15;;;;;;;0.35;0.35;;;7.40;99.90;;;;;;5021972;28;20054;-68
2022/12/23 07:20:41;;;;;;;0.45;0.15;;;7.40;99.90;;;;;;5022504;28;20814;-68
2022/12/23 07:23:06;;;;;;;0.10;0.10;;;7.40;99.90;;;;;;5026642;28;20034;-68
2022/12/23 07:25:32;;;;;;;0.10;0.10;;;7.30;99.90;;;;;;5027987;28;20037;-68
2022/12/23 07:27:57;;;;;;;0.10;0.10;;;7.30;99.90;;;;;;5024707;28;20053;-67
2022/12/23 07:30:23;;;;;;;0.15;0.15;;;7.40;99.90;;;;;;5029574;28;20053;-68
2022/12/23 07:32:50;;;;;;;0.03;0.03;;;7.40;99.90;;;;;;5026447;28;20382;-67
2022/12/23 07:35:16;;;;;;;0.77;0.77;;;7.40;99.90;;;;;;5026883;28;20501;-67
2022/12/23 07:37:42;;;;;;;5.18;1.60;;;7.40;99.90;;;;;;5026910;28;20053;-67
2022/12/23 07:40:08;;;;;;;0.63;0.63;;;7.40;99.90;;;;;;5029484;28;20643;-67
2022/12/23 07:42:34;;;;;;;0.10;0.10;;;7.40;99.90;;;;;;5027845;28;20434;-67
2022/12/23 07:45:00;;;;;;;0.20;0.20;;;7.40;99.90;;;;;;5028985;28;20080;-67
2022/12/23 07:47:26;;;;;;;1.55;1.35;;;7.40;99.90;;;;;;5026667;28;20053;-68
2022/12/23 07:49:51;;;;;;;0.30;0.30;;;7.50;99.90;;;;;;5026822;28;20164;-67
2022/12/23 07:52:17;;;;;;;0.40;0.40;;;7.40;99.90;;;;;;5029367;28;20045;-67
2022/12/23 07:54:43;;;;;;;0.35;0.35;;;7.40;99.90;;;;;;5025213;28;20049;-67
2022/12/23 07:57:08;;;;;;;1.45;1.35;;;7.40;99.90;;;;;;5024379;28;20049;-66
2022/12/23 07:59:34;;;;;;;0.35;0.35;;;7.40;99.90;;;;;;5028204;28;20543;-67
2022/12/23 08:02:00;;;;;;;0.10;0.10;;;7.40;99.90;;;;;;5020606;28;20136;-67
2022/12/23 08:04:25;;;;;;;0.10;0.10;;;7.30;99.90;;;;;;5024635;28;20041;-67
2022/12/23 08:06:51;;;;;;;1.20;1.10;;;7.30;99.90;;;;;;5024235;28;20540;-67
2022/12/23 08:09:17;;;;;;;0.10;0.10;;;7.30;99.90;;;;;;5024632;28;20053;-67
2022/12/23 08:11:43;;;;;;;0.10;0.10;;;7.30;99.90;;;;;;5021649;28;20061;-67
2022/12/23 08:14:08;;;;;;;0.17;0.17;;;7.30;99.90;;;;;;5020275;28;20111;-67
2022/12/23 08:16:34;;;;;;;0.30;0.30;;;7.30;99.90;;;;;;5026795;28;20116;-67
2022/12/23 08:18:59;;;;;;;0.55;0.55;;;7.30;99.90;;;;;;5027588;28;20534;-67
2022/12/23 08:21:25;;;;;;;0.30;0.30;;;7.30;99.90;;;;;;5028404;28;20068;-67
2022/12/23 08:23:51;;;;;;;0.28;0.28;;;7.30;99.90;;;;;;5026799;28;20053;-67
2022/12/23 08:26:22;;;;;;;1.20;0.95;;;7.30;99.90;;;;;;5024787;28;20041;-67
2022/12/23 08:28:52;;;;;;;3.30;1.65;;;7.30;99.90;;;;;;5026401;28;20057;-67
2022/12/23 08:31:21;;;;;;;0.38;0.38;;;7.40;99.90;;;;;;5026987;28;20056;-67
2022/12/23 08:33:49;;;;;;;0.10;0.10;;;7.40;99.90;;;;;;5027984;28;20582;-67
2022/12/23 08:36:18;;;;;;;0.70;0.70;;;7.40;99.90;;;;;;5027355;28;20049;-67
2022/12/23 08:38:45;;;;;;;0.15;0.15;;;7.40;99.90;;;;;;5024605;28;20042;-67
2022/12/23 08:41:12;;;;;;;0.10;0.10;;;7.40;99.90;;;;;;5024571;28;20059;-67
2022/12/23 08:43:38;;;;;;;0.10;0.10;;;7.40;99.90;;;;;;5025560;28;20524;-67
2022/12/23 08:46:04;;;;;;;0.57;0.57;;;7.40;99.90;;;;;;5022721;28;20133;-67
2022/12/23 08:48:32;;;;;;;0.25;0.25;;;7.40;99.90;;;;;;5020969;28;20064;-67
2022/12/23 08:51:03;;;;;;;1.65;0.90;;;7.40;99.90;;;;;;5027367;28;20156;-67
2022/12/23 08:53:28;;;;;;;0.20;0.20;;;7.40;99.90;;;;;;5026152;28;20034;-67
2022/12/23 08:55:54;;;;;;;0.20;0.20;;;7.50;99.90;;;;;;5022229;28;20041;-67
2022/12/23 08:58:20;;;;;;;0.10;0.10;;;7.40;99.90;;;;;;5019288;28;20405;-67
2022/12/23 09:00:45;;;;;;;1.60;1.50;;;7.50;99.90;;;;;;5011150;28;20049;-67
2022/12/23 09:03:11;;;;;;;0.25;0.25;;;7.50;99.90;;;;;;5021876;28;20041;-67
2022/12/23 09:05:41;;;;;;;0.70;0.70;;;7.60;99.90;;;;;;5022194;28;20186;-67
2022/12/23 09:08:07;;;;;;;0.20;0.20;;;7.60;99.90;;;;;;5022517;28;20486;-67
2022/12/23 09:10:34;;;;;;;0.63;0.63;;;7.60;99.90;;;;;;5023916;28;20049;-67
2022/12/23 09:12:59;;;;;;;1.27;0.95;;;7.60;99.90;;;;;;5026838;28;20053;-67
2022/12/23 09:15:25;;;;;;;0.77;0.77;;;7.60;99.90;;;;;;5027849;28;20049;-67
2022/12/23 09:17:51;;;;;;;0.10;0.10;;;7.60;99.90;;;;;;5028123;28;20055;-67
2022/12/23 09:20:16;;;;;;;0.10;0.10;;;7.60;99.90;;;;;;5024097;28;20049;-67
2022/12/23 09:22:42;;;;;;;0.15;0.15;;;7.60;99.90;;;;;;5026591;28;20505;-67
2022/12/23 09:25:08;;;;;;;0.75;0.75;;;7.60;99.90;;;;;;5024100;28;20386;-67
2022/12/23 09:27:33;;;;;;;0.20;0.20;;;7.60;99.90;;;;;;5021885;28;20042;-67
2022/12/23 09:29:59;;;;;;;0.10;0.10;;;7.70;99.90;;;;;;5023259;28;20038;-67
2022/12/23 09:32:24;;;;;;;0.10;0.10;;;7.70;99.90;;;;;;5026834;28;20673;-67
2022/12/23 09:34:50;;;;;;;0.20;0.20;;;7.80;99.90;;;;;;5022080;28;20041;-67
2022/12/23 09:37:15;;;;;;;1.30;1.30;;;7.80;99.90;;;;;;5020839;28;20045;-67
2022/12/23 09:39:42;;;;;;;0.80;0.80;;;7.80;99.90;;;;;;5024188;28;20050;-67
2022/12/23 09:42:43;;;;;;;0.10;0.10;;;7.90;99.90;;;;;;5020504;28;20045;-67
2022/12/23 09:45:38;;;;;;;0.73;0.73;;;7.90;99.90;;;;;;5019454;28;20690;-67
2022/12/23 09:48:12;;;;;;;0.10;0.10;;;7.90;99.90;;;;;;5026022;28;20081;-67
2022/12/23 09:50:38;;;;;;;0.80;0.80;;;7.90;99.90;;;;;;5027479;28;20049;-67
2022/12/23 09:53:05;;;;;;;0.20;0.20;;;8.00;99.90;;;;;;5022899;28;20052;-67
2022/12/23 09:55:55;;;;;;;0.13;0.13;;;8.00;99.90;;;;;;5021894;28;20100;-67
2022/12/23 09:58:50;;;;;;;0.00;0.00;;;8.00;99.90;;;;;;5026080;28;20080;-66
2022/12/23 10:01:23;;;;;;;0.10;0.10;;;8.00;99.90;;;;;;5027834;28;20061;-67
2022/12/23 10:04:23;;;;;;;0.08;0.08;;;8.00;99.90;;;;;;5027187;28;21154;-67
2022/12/23 10:07:06;;;;;;;0.30;0.30;;;8.00;99.90;;;;;;5028058;28;20493;-67
2022/12/23 10:09:37;;;;;;;0.20;0.20;;;8.00;99.90;;;;;;5025844;28;20075;-68
2022/12/23 10:12:43;;;;;;;0.35;0.35;;;8.00;99.90;;;;;;5027892;28;20405;-68
2022/12/23 10:15:32;;;;;;;2.83;2.15;;;7.90;99.90;;;;;;5028558;28;20046;-68
2022/12/23 10:18:22;;;;;;;0.10;0.10;;;8.00;99.90;;;;;;5023898;28;20516;-68
2022/12/23 10:20:52;;;;;;;0.10;0.10;;;8.10;99.90;;;;;;5021910;28;20528;-68
2022/12/23 10:23:32;;;;;;;1.35;0.90;;;8.10;99.90;;;;;;5029045;28;20037;-68
2022/12/23 10:25:59;;;;;;;0.30;0.30;;;8.10;99.90;;;;;;5027163;28;20064;-68
2022/12/23 10:28:24;;;;;;;0.10;0.10;;;8.10;99.90;;;;;;5029027;28;20084;-69
2022/12/23 10:31:01;;;;;;;0.22;0.22;;;8.10;99.90;;;;;;5025587;28;20068;-68
2022/12/23 10:33:45;;;;;;;0.10;0.10;;;8.10;99.90;;;;;;5018650;28;20129;-68
2022/12/23 10:36:24;;;;;;;0.10;0.10;;;8.10;99.90;;;;;;5028235;28;20034;-68
2022/12/23 10:38:55;;;;;;;0.47;0.47;;;8.20;99.90;;;;;;5030066;28;20092;-68
2022/12/23 10:41:26;;;;;;;0.20;0.20;;;8.20;99.90;;;;;;5025368;28;20045;-68
2022/12/23 10:43:55;;;;;;;0.20;0.20;;;8.20;99.90;;;;;;5026434;28;20041;-68
2022/12/23 10:46:45;;;;;;;0.57;0.57;;;8.20;99.90;;;;;;5027625;28;20053;-67
2022/12/23 10:49:19;;;;;;;0.10;0.10;;;8.20;99.90;;;;;;5028450;28;20363;-68
2022/12/23 10:51:53;;;;;;;0.10;0.10;;;8.20;99.90;;;;;;5027838;28;21049;-68
2022/12/23 10:54:34;;;;;;;0.40;0.40;;;8.20;99.90;;;;;;5030873;28;20052;-68
2022/12/23 10:57:01;;;;;;;0.20;0.20;;;8.30;99.90;;;;;;5026441;28;20045;-68
2022/12/23 10:59:30;;;;;;;0.08;0.08;;;8.30;99.90;;;;;;5028404;28;20132;-68
2022/12/23 11:02:11;;;;;;;0.10;0.10;;;8.30;99.90;;;;;;5030406;28;20049;-68
2022/12/23 11:04:39;;;;;;;0.10;0.10;;;8.30;99.90;;;;;;5029017;28;20034;-68
2022/12/23 11:07:09;;;;;;;2.28;1.30;;;8.30;99.90;;;;;;5027674;28;20049;-68
2022/12/23 11:09:39;;;;;;;0.25;0.25;;;8.30;99.90;;;;;;5026455;28;20048;-68
2022/12/23 11:12:07;;;;;;;0.25;0.25;;;8.40;99.90;;;;;;5024595;28;20049;-68
2022/12/23 11:14:36;;;;;;;0.10;0.10;;;8.40;99.90;;;;;;5024973;28;20103;-68
2022/12/23 11:17:03;;;;;;;0.10;0.10;;;8.40;99.90;;;;;;5026942;28;20057;-68
2022/12/23 11:19:30;;;;;;;0.30;0.30;;;8.40;99.90;;;;;;5038546;28;20057;-68
2022/12/23 11:21:57;;;;;;;0.10;0.10;;;8.40;99.90;;;;;;5026392;28;20049;-68
2022/12/23 11:24:24;;;;;;;0.10;0.10;;;8.40;99.90;;;;;;5025798;28;20045;-68
2022/12/23 11:27:00;;;;;;;0.10;0.10;;;8.40;99.90;;;;;;5013573;28;20111;-68
2022/12/23 11:29:31;;;;;;;0.10;0.10;;;8.40;99.90;;;;;;5021769;28;20088;-68
2022/12/23 11:31:58;;;;;;;0.73;0.73;;;8.40;99.90;;;;;;5028442;28;20099;-68
2022/12/23 11:34:26;;;;;;;0.30;0.30;;;8.40;99.90;;;;;;5026333;28;20375;-68
2022/12/23 11:36:59;;;;;;;1.00;1.00;;;8.40;99.90;;;;;;5026675;28;20065;-68
2022/12/23 11:39:31;;;;;;;1.13;1.08;;;8.40;99.90;;;;;;5021677;28;20048;-67
2022/12/23 11:42:10;;;;;;;0.47;0.47;;;8.40;99.90;;;;;;5027145;28;20045;-68
2022/12/23 11:44:42;;;;;;;0.65;0.65;;;8.40;99.90;;;;;;5026022;28;20130;-68
2022/12/23 11:47:31;;;;;;;1.20;1.17;;;8.30;99.90;;;;;;5028963;28;20521;-68
2022/12/23 11:50:00;;;;;;;0.47;0.47;;;8.40;99.90;;;;;;5025524;28;20068;-68
2022/12/23 11:52:29;;;;;;;0.60;0.60;;;8.30;99.90;;;;;;5028329;28;20120;-68
2022/12/23 11:54:57;;;;;;;0.40;0.40;;;8.30;99.90;;;;;;5028438;28;20081;-69
2022/12/23 11:57:45;;;;;;;1.60;1.50;;;8.30;99.90;;;;;;5027919;28;20087;-68
2022/12/23 12:00:39;;;;;;;0.47;0.47;;;8.30;99.90;;;;;;5018787;28;20045;-69
2022/12/23 12:03:07;;;;;;;0.68;0.22;;;8.30;99.90;;;;;;5022654;28;20041;-69
2022/12/23 12:05:34;;;;;;;0.35;0.35;;;8.20;99.90;;;;;;5025452;28;20755;-69
2022/12/23 12:08:07;;;;;;;0.10;0.10;;;8.30;99.90;;;;;;5020814;28;20524;-68
2022/12/23 12:10:36;;;;;;;1.10;0.25;;;8.30;99.90;;;;;;5023893;28;20052;-69
2022/12/23 12:13:05;;;;;;;1.10;1.00;;;8.30;99.90;;;;;;5019673;28;20049;-68
2022/12/23 12:15:53;;;;;;;1.75;1.65;;;8.30;99.90;;;;;;5025006;28;20728;-69
2022/12/23 12:18:20;;;;;;;0.20;0.20;;;8.30;99.90;;;;;;5021506;28;20696;-68
2022/12/23 12:20:53;;;;;;;11.15;10.25;;;8.30;99.90;;;;;;5023418;28;20413;-78
2022/12/23 12:23:28;;;;;;;28.30;24.40;;;8.30;99.90;;;;;;5023107;28;20131;-69
2022/12/23 12:26:05;;;;;;;14.63;11.02;;;8.40;99.90;;;;;;5018824;28;20049;-69
2022/12/23 12:28:37;;;;;;;11.45;9.55;;;8.40;99.90;;;;;;5022941;28;20132;-68
2022/12/23 12:31:21;;;;;;;3.40;2.60;;;8.30;99.90;;;;;;5039822;28;20053;-68
2022/12/23 12:34:00;;;;;;;4.15;3.80;;;8.30;99.90;;;;;;5019033;28;20182;-69
2022/12/23 12:36:44;;;;;;;0.60;0.60;;;8.30;99.90;;;;;;5024509;28;20049;-68
2022/12/23 12:39:16;;;;;;;;;;;8.40;99.90;;;;;;5022513;28;20481;-68
2022/12/23 12:41:53;;;;;;;0.85;0.85;;;8.40;99.90;;;;;;5022757;28;19932;-68
2022/12/23 12:44:39;;;;;;;4.22;1.33;;;8.30;99.90;;;;;;5027591;28;20049;-68
2022/12/23 12:47:23;;;;;;;1.35;1.10;;;8.30;99.90;;;;;;5025559;28;20479;-68
2022/12/23 12:50:01;;;;;;;0.60;0.40;;;8.30;99.90;;;;;;5026074;28;20089;-68
2022/12/23 12:52:34;;;;;;;1.52;1.40;;;8.30;99.90;;;;;;5033941;28;20049;-69
2022/12/23 12:55:12;;;;;;;0.17;0.17;;;8.30;99.90;;;;;;5019746;28;20078;-69
2022/12/23 12:57:39;;;;;;;2.58;0.85;;;8.40;99.90;;;;;;5023893;28;20076;-69
2022/12/23 13:00:20;;;;;;;1.73;1.63;;;8.40;99.90;;;;;;5024158;28;20084;-69
2022/12/23 13:03:13;;;;;;;0.10;0.10;;;8.40;99.90;;;;;;5017035;28;20045;-70
2022/12/23 13:06:00;;;;;;;0.50;0.50;;;8.40;99.90;;;;;;5026121;28;20128;-70
2022/12/23 13:08:33;;;;;;;1.23;0.80;;;8.40;99.90;;;;;;5010091;28;20322;-70
2022/12/23 13:11:01;;;;;;;0.10;0.10;;;8.40;99.90;;;;;;5022793;28;20056;-69
2022/12/23 13:13:55;;;;;;;1.08;1.02;;;8.40;99.90;;;;;;5026658;28;20042;-70
2022/12/23 13:16:43;;;;;;;5.57;2.95;;;8.40;99.90;;;;;;5009059;28;20045;-69
2022/12/23 13:19:11;;;;;;;0.35;0.35;;;8.40;99.90;;;;;;5025486;28;20417;-69
2022/12/23 13:21:50;;;;;;;1.25;1.02;;;8.40;99.90;;;;;;5020821;28;20065;-69
2022/12/23 13:24:32;;;;;;;2.58;2.08;;;8.40;99.90;;;;;;5028361;28;20041;-69
2022/12/23 13:27:16;;;;;;;1.17;1.17;;;8.40;99.90;;;;;;5026276;28;20643;-69
2022/12/23 13:30:00;;;;;;;1.75;1.42;;;8.40;99.90;;;;;;5007637;28;20045;-69
2022/12/23 13:32:35;;;;;;;2.50;0.82;;;8.40;99.90;;;;;;5010074;28;20482;-69
2022/12/23 13:35:14;;;;;;;3.13;1.85;;;8.40;99.90;;;;;;5011098;28;20061;-69
2022/12/23 13:38:07;;;;;;;0.80;0.80;;;8.40;99.90;;;;;;5032247;28;20063;-69
2022/12/23 13:40:32;;;;;;;5.18;3.35;;;8.40;99.90;;;;;;5023395;28;20053;-67